sensor_id;sensor_type;location;lat;lon;timestamp;P1;durP1;ratioP1;P2;durP2;ratioP2
22715;SDS011;11525;51.152;4.456;2022-09-01T00:02:22;5.95;;;1.92;;
22715;SDS011;11525;51.152;4.456;2022-09-01T00:04:51;5.00;;;2.17;;
22715;SDS011;11525;51.152;4.456;2022-09-01T00:07:23;5.93;;;1.75;;
22715;SDS011;11525;51.152;4.456;2022-09-01T00:09:50;6.05;;;1.83;;
22715;SDS011;11525;51.152;4.456;2022-09-01T00:12:16;2.67;;;1.80;;
22715;SDS011;11525;51.152;4.456;2022-09-01T00:14:43;4.40;;;1.67;;
22715;SDS011;11525;51.152;4.456;2022-09-01T00:17:09;2.85;;;1.73;;
22715;SDS011;11525;51.152;4.456;2022-09-01T00:19:36;5.72;;;1.80;;
22715;SDS011;11525;51.152;4.456;2022-09-01T00:22:04;5.57;;;2.00;;
22715;SDS011;11525;51.152;4.456;2022-09-01T00:24:30;2.40;;;1.88;;
22715;SDS011;11525;51.152;4.456;2022-09-01T00:26:57;6.00;;;2.22;;
22715;SDS011;11525;51.152;4.456;2022-09-01T00:29:23;3.30;;;1.92;;
22715;SDS011;11525;51.152;4.456;2022-09-01T00:31:50;6.63;;;2.08;;
22715;SDS011;11525;51.152;4.456;2022-09-01T00:34:17;4.00;;;1.98;;
22715;SDS011;11525;51.152;4.456;2022-09-01T00:36:43;3.35;;;1.88;;
22715;SDS011;11525;51.152;4.456;2022-09-01T00:39:08;2.72;;;1.70;;
22715;SDS011;11525;51.152;4.456;2022-09-01T00:41:36;3.70;;;2.08;;
22715;SDS011;11525;51.152;4.456;2022-09-01T00:44:07;5.95;;;2.10;;
22715;SDS011;11525;51.152;4.456;2022-09-01T00:46:40;4.93;;;1.92;;
22715;SDS011;11525;51.152;4.456;2022-09-01T00:49:15;3.47;;;2.08;;
22715;SDS011;11525;51.152;4.456;2022-09-01T00:51:46;2.00;;;1.70;;
22715;SDS011;11525;51.152;4.456;2022-09-01T00:54:20;2.42;;;1.85;;
22715;SDS011;11525;51.152;4.456;2022-09-01T00:56:50;2.50;;;1.63;;
22715;SDS011;11525;51.152;4.456;2022-09-01T00:59:16;3.65;;;1.50;;
22715;SDS011;11525;51.152;4.456;2022-09-01T01:01:44;4.18;;;1.90;;
22715;SDS011;11525;51.152;4.456;2022-09-01T01:04:10;4.90;;;1.70;;
22715;SDS011;11525;51.152;4.456;2022-09-01T01:06:43;2.65;;;2.20;;
22715;SDS011;11525;51.152;4.456;2022-09-01T01:09:14;6.28;;;2.00;;
22715;SDS011;11525;51.152;4.456;2022-09-01T01:11:42;4.97;;;2.00;;
22715;SDS011;11525;51.152;4.456;2022-09-01T01:14:12;6.43;;;2.00;;
22715;SDS011;11525;51.152;4.456;2022-09-01T01:16:41;11.88;;;2.78;;
22715;SDS011;11525;51.152;4.456;2022-09-01T01:25:20;7.38;;;2.50;;
22715;SDS011;11525;51.152;4.456;2022-09-01T01:27:46;4.32;;;2.25;;
22715;SDS011;11525;51.152;4.456;2022-09-01T01:30:13;5.35;;;2.65;;
22715;SDS011;11525;51.152;4.456;2022-09-01T01:32:40;3.50;;;2.30;;
22715;SDS011;11525;51.152;4.456;2022-09-01T01:35:09;5.20;;;2.58;;
22715;SDS011;11525;51.152;4.456;2022-09-01T01:37:39;4.93;;;2.22;;
22715;SDS011;11525;51.152;4.456;2022-09-01T01:40:10;5.90;;;2.38;;
22715;SDS011;11525;51.152;4.456;2022-09-01T01:42:41;6.35;;;2.28;;
22715;SDS011;11525;51.152;4.456;2022-09-01T01:45:12;3.40;;;2.33;;
22715;SDS011;11525;51.152;4.456;2022-09-01T01:47:41;6.15;;;2.33;;
22715;SDS011;11525;51.152;4.456;2022-09-01T01:50:11;5.63;;;2.30;;
22715;SDS011;11525;51.152;4.456;2022-09-01T01:52:38;3.85;;;2.53;;
22715;SDS011;11525;51.152;4.456;2022-09-01T01:55:06;7.30;;;2.60;;
22715;SDS011;11525;51.152;4.456;2022-09-01T01:57:36;5.85;;;2.20;;
22715;SDS011;11525;51.152;4.456;2022-09-01T02:00:03;5.78;;;2.50;;
22715;SDS011;11525;51.152;4.456;2022-09-01T02:02:29;3.28;;;2.17;;
22715;SDS011;11525;51.152;4.456;2022-09-01T02:04:55;5.03;;;2.13;;
22715;SDS011;11525;51.152;4.456;2022-09-01T02:07:22;3.53;;;2.25;;
22715;SDS011;11525;51.152;4.456;2022-09-01T02:09:48;2.53;;;2.10;;
22715;SDS011;11525;51.152;4.456;2022-09-01T02:12:13;2.30;;;2.10;;
22715;SDS011;11525;51.152;4.456;2022-09-01T02:14:43;3.38;;;2.33;;
22715;SDS011;11525;51.152;4.456;2022-09-01T02:17:09;5.53;;;2.10;;
22715;SDS011;11525;51.152;4.456;2022-09-01T02:19:34;4.28;;;2.20;;
22715;SDS011;11525;51.152;4.456;2022-09-01T02:22:07;4.57;;;2.28;;
22715;SDS011;11525;51.152;4.456;2022-09-01T02:24:35;2.97;;;2.05;;
22715;SDS011;11525;51.152;4.456;2022-09-01T02:27:01;5.65;;;1.95;;
22715;SDS011;11525;51.152;4.456;2022-09-01T02:29:27;3.70;;;2.28;;
22715;SDS011;11525;51.152;4.456;2022-09-01T02:31:54;2.85;;;2.08;;
22715;SDS011;11525;51.152;4.456;2022-09-01T02:34:21;3.92;;;2.20;;
22715;SDS011;11525;51.152;4.456;2022-09-01T02:36:50;3.75;;;2.33;;
22715;SDS011;11525;51.152;4.456;2022-09-01T02:39:19;4.53;;;2.20;;
22715;SDS011;11525;51.152;4.456;2022-09-01T02:41:50;3.10;;;2.15;;
22715;SDS011;11525;51.152;4.456;2022-09-01T02:44:16;5.72;;;2.53;;
22715;SDS011;11525;51.152;4.456;2022-09-01T02:46:46;3.72;;;2.00;;
22715;SDS011;11525;51.152;4.456;2022-09-01T02:49:14;3.13;;;1.98;;
22715;SDS011;11525;51.152;4.456;2022-09-01T02:51:45;3.50;;;2.28;;
22715;SDS011;11525;51.152;4.456;2022-09-01T02:54:14;2.88;;;2.13;;
22715;SDS011;11525;51.152;4.456;2022-09-01T02:56:41;2.15;;;1.73;;
22715;SDS011;11525;51.152;4.456;2022-09-01T02:59:10;3.17;;;2.22;;
22715;SDS011;11525;51.152;4.456;2022-09-01T03:01:37;4.43;;;2.05;;
22715;SDS011;11525;51.152;4.456;2022-09-01T03:04:04;4.95;;;2.67;;
22715;SDS011;11525;51.152;4.456;2022-09-01T03:06:34;4.50;;;2.00;;
22715;SDS011;11525;51.152;4.456;2022-09-01T03:09:02;5.32;;;1.95;;
22715;SDS011;11525;51.152;4.456;2022-09-01T03:11:33;5.05;;;2.30;;
22715;SDS011;11525;51.152;4.456;2022-09-01T03:14:01;4.07;;;2.17;;
22715;SDS011;11525;51.152;4.456;2022-09-01T03:16:27;4.60;;;2.20;;
22715;SDS011;11525;51.152;4.456;2022-09-01T03:18:54;3.42;;;2.13;;
22715;SDS011;11525;51.152;4.456;2022-09-01T03:21:20;5.53;;;2.78;;
22715;SDS011;11525;51.152;4.456;2022-09-01T03:23:48;5.38;;;2.40;;
22715;SDS011;11525;51.152;4.456;2022-09-01T03:26:15;7.15;;;2.58;;
22715;SDS011;11525;51.152;4.456;2022-09-01T03:28:43;9.98;;;1.95;;
22715;SDS011;11525;51.152;4.456;2022-09-01T03:31:10;8.32;;;2.50;;
22715;SDS011;11525;51.152;4.456;2022-09-01T03:33:35;7.85;;;2.60;;
22715;SDS011;11525;51.152;4.456;2022-09-01T03:36:03;6.68;;;2.17;;
22715;SDS011;11525;51.152;4.456;2022-09-01T03:38:29;6.90;;;2.85;;
22715;SDS011;11525;51.152;4.456;2022-09-01T03:41:00;6.22;;;2.40;;
22715;SDS011;11525;51.152;4.456;2022-09-01T03:43:29;3.95;;;2.60;;
22715;SDS011;11525;51.152;4.456;2022-09-01T03:45:56;5.03;;;2.60;;
22715;SDS011;11525;51.152;4.456;2022-09-01T03:48:25;4.93;;;2.40;;
22715;SDS011;11525;51.152;4.456;2022-09-01T03:50:56;6.50;;;2.65;;
22715;SDS011;11525;51.152;4.456;2022-09-01T03:53:25;5.80;;;2.47;;
22715;SDS011;11525;51.152;4.456;2022-09-01T03:55:51;4.25;;;2.78;;
22715;SDS011;11525;51.152;4.456;2022-09-01T03:58:21;3.50;;;2.72;;
22715;SDS011;11525;51.152;4.456;2022-09-01T04:00:50;4.22;;;2.47;;
22715;SDS011;11525;51.152;4.456;2022-09-01T04:03:19;5.50;;;2.50;;
22715;SDS011;11525;51.152;4.456;2022-09-01T04:05:49;9.85;;;2.80;;
22715;SDS011;11525;51.152;4.456;2022-09-01T04:08:16;4.63;;;2.85;;
22715;SDS011;11525;51.152;4.456;2022-09-01T04:10:47;7.30;;;2.80;;
22715;SDS011;11525;51.152;4.456;2022-09-01T04:13:24;10.60;;;3.60;;
22715;SDS011;11525;51.152;4.456;2022-09-01T04:15:52;7.82;;;2.97;;
22715;SDS011;11525;51.152;4.456;2022-09-01T04:18:20;6.13;;;3.63;;
22715;SDS011;11525;51.152;4.456;2022-09-01T04:20:47;4.43;;;3.00;;
22715;SDS011;11525;51.152;4.456;2022-09-01T04:23:16;7.25;;;3.50;;
22715;SDS011;11525;51.152;4.456;2022-09-01T04:25:51;6.82;;;3.53;;
22715;SDS011;11525;51.152;4.456;2022-09-01T04:28:19;7.57;;;3.17;;
22715;SDS011;11525;51.152;4.456;2022-09-01T04:30:54;10.32;;;3.30;;
22715;SDS011;11525;51.152;4.456;2022-09-01T04:33:22;5.38;;;3.25;;
22715;SDS011;11525;51.152;4.456;2022-09-01T04:36:01;8.68;;;3.30;;
22715;SDS011;11525;51.152;4.456;2022-09-01T04:38:28;6.15;;;3.40;;
22715;SDS011;11525;51.152;4.456;2022-09-01T04:41:01;11.30;;;3.72;;
22715;SDS011;11525;51.152;4.456;2022-09-01T04:43:31;6.82;;;3.88;;
22715;SDS011;11525;51.152;4.456;2022-09-01T04:46:00;7.07;;;4.00;;
22715;SDS011;11525;51.152;4.456;2022-09-01T04:48:27;7.43;;;3.72;;
22715;SDS011;11525;51.152;4.456;2022-09-01T04:50:53;5.75;;;3.80;;
22715;SDS011;11525;51.152;4.456;2022-09-01T04:53:20;6.90;;;4.13;;
22715;SDS011;11525;51.152;4.456;2022-09-01T04:55:49;7.72;;;4.55;;
22715;SDS011;11525;51.152;4.456;2022-09-01T04:58:17;6.90;;;4.22;;
22715;SDS011;11525;51.152;4.456;2022-09-01T05:00:44;8.88;;;4.25;;
22715;SDS011;11525;51.152;4.456;2022-09-01T05:03:16;9.00;;;4.32;;
22715;SDS011;11525;51.152;4.456;2022-09-01T05:05:45;9.45;;;5.57;;
22715;SDS011;11525;51.152;4.456;2022-09-01T05:08:12;6.28;;;4.80;;
22715;SDS011;11525;51.152;4.456;2022-09-01T05:10:45;6.80;;;4.43;;
22715;SDS011;11525;51.152;4.456;2022-09-01T05:13:14;5.57;;;4.22;;
22715;SDS011;11525;51.152;4.456;2022-09-01T05:15:42;9.60;;;5.38;;
22715;SDS011;11525;51.152;4.456;2022-09-01T05:18:15;6.32;;;4.78;;
22715;SDS011;11525;51.152;4.456;2022-09-01T05:20:47;11.35;;;5.20;;
22715;SDS011;11525;51.152;4.456;2022-09-01T05:23:17;14.35;;;5.82;;
22715;SDS011;11525;51.152;4.456;2022-09-01T05:25:44;10.75;;;5.57;;
22715;SDS011;11525;51.152;4.456;2022-09-01T05:28:13;10.82;;;5.97;;
22715;SDS011;11525;51.152;4.456;2022-09-01T05:30:44;11.40;;;5.80;;
22715;SDS011;11525;51.152;4.456;2022-09-01T05:33:11;14.40;;;6.45;;
22715;SDS011;11525;51.152;4.456;2022-09-01T05:35:41;10.25;;;5.50;;
22715;SDS011;11525;51.152;4.456;2022-09-01T05:38:16;10.00;;;5.38;;
22715;SDS011;11525;51.152;4.456;2022-09-01T05:40:43;14.20;;;5.97;;
22715;SDS011;11525;51.152;4.456;2022-09-01T05:43:12;9.85;;;5.80;;
22715;SDS011;11525;51.152;4.456;2022-09-01T05:45:39;13.07;;;6.68;;
22715;SDS011;11525;51.152;4.456;2022-09-01T05:48:07;14.00;;;6.57;;
22715;SDS011;11525;51.152;4.456;2022-09-01T05:50:40;15.18;;;6.07;;
22715;SDS011;11525;51.152;4.456;2022-09-01T05:53:08;11.43;;;6.80;;
22715;SDS011;11525;51.152;4.456;2022-09-01T05:55:40;13.18;;;7.10;;
22715;SDS011;11525;51.152;4.456;2022-09-01T05:58:08;10.68;;;6.20;;
22715;SDS011;11525;51.152;4.456;2022-09-01T06:00:38;13.60;;;6.40;;
22715;SDS011;11525;51.152;4.456;2022-09-01T06:03:09;11.70;;;6.38;;
22715;SDS011;11525;51.152;4.456;2022-09-01T06:05:35;14.32;;;7.00;;
22715;SDS011;11525;51.152;4.456;2022-09-01T06:08:05;11.93;;;7.18;;
22715;SDS011;11525;51.152;4.456;2022-09-01T06:10:32;18.40;;;7.70;;
22715;SDS011;11525;51.152;4.456;2022-09-01T06:13:04;14.13;;;7.75;;
22715;SDS011;11525;51.152;4.456;2022-09-01T06:15:35;14.80;;;8.00;;
22715;SDS011;11525;51.152;4.456;2022-09-01T06:18:05;14.70;;;7.97;;
22715;SDS011;11525;51.152;4.456;2022-09-01T06:20:39;22.50;;;8.07;;
22715;SDS011;11525;51.152;4.456;2022-09-01T06:23:08;17.23;;;8.35;;
22715;SDS011;11525;51.152;4.456;2022-09-01T06:25:37;17.02;;;8.45;;
22715;SDS011;11525;51.152;4.456;2022-09-01T06:28:04;16.45;;;8.18;;
22715;SDS011;11525;51.152;4.456;2022-09-01T06:30:32;15.93;;;7.68;;
22715;SDS011;11525;51.152;4.456;2022-09-01T06:33:00;14.80;;;7.82;;
22715;SDS011;11525;51.152;4.456;2022-09-01T06:35:29;16.67;;;8.05;;
22715;SDS011;11525;51.152;4.456;2022-09-01T06:37:56;14.77;;;7.80;;
22715;SDS011;11525;51.152;4.456;2022-09-01T06:40:22;12.15;;;8.05;;
22715;SDS011;11525;51.152;4.456;2022-09-01T06:42:50;19.98;;;7.90;;
22715;SDS011;11525;51.152;4.456;2022-09-01T06:45:18;14.90;;;7.45;;
22715;SDS011;11525;51.152;4.456;2022-09-01T06:47:47;15.65;;;7.95;;
22715;SDS011;11525;51.152;4.456;2022-09-01T06:50:15;13.93;;;8.23;;
22715;SDS011;11525;51.152;4.456;2022-09-01T06:52:46;13.20;;;8.10;;
22715;SDS011;11525;51.152;4.456;2022-09-01T06:55:14;15.95;;;7.80;;
22715;SDS011;11525;51.152;4.456;2022-09-01T06:57:41;13.63;;;8.68;;
22715;SDS011;11525;51.152;4.456;2022-09-01T07:00:13;16.45;;;7.85;;
22715;SDS011;11525;51.152;4.456;2022-09-01T07:02:43;17.45;;;8.30;;
22715;SDS011;11525;51.152;4.456;2022-09-01T07:05:09;16.35;;;8.20;;
22715;SDS011;11525;51.152;4.456;2022-09-01T07:07:36;13.20;;;7.80;;
22715;SDS011;11525;51.152;4.456;2022-09-01T07:10:03;15.68;;;8.40;;
22715;SDS011;11525;51.152;4.456;2022-09-01T07:12:29;16.02;;;7.90;;
22715;SDS011;11525;51.152;4.456;2022-09-01T07:14:56;15.38;;;8.23;;
22715;SDS011;11525;51.152;4.456;2022-09-01T07:17:24;14.15;;;8.68;;
22715;SDS011;11525;51.152;4.456;2022-09-01T07:19:50;24.60;;;9.18;;
22715;SDS011;11525;51.152;4.456;2022-09-01T07:22:17;13.40;;;8.60;;
22715;SDS011;11525;51.152;4.456;2022-09-01T07:24:43;17.75;;;9.93;;
22715;SDS011;11525;51.152;4.456;2022-09-01T07:27:10;22.60;;;9.73;;
22715;SDS011;11525;51.152;4.456;2022-09-01T07:29:36;15.27;;;9.30;;
22715;SDS011;11525;51.152;4.456;2022-09-01T07:32:03;13.57;;;8.93;;
22715;SDS011;11525;51.152;4.456;2022-09-01T07:34:29;15.23;;;9.38;;
22715;SDS011;11525;51.152;4.456;2022-09-01T07:36:57;17.10;;;8.52;;
22715;SDS011;11525;51.152;4.456;2022-09-01T07:39:24;20.40;;;9.60;;
22715;SDS011;11525;51.152;4.456;2022-09-01T07:41:50;19.08;;;9.82;;
22715;SDS011;11525;51.152;4.456;2022-09-01T07:44:17;16.80;;;9.18;;
22715;SDS011;11525;51.152;4.456;2022-09-01T07:46:43;19.33;;;9.57;;
22715;SDS011;11525;51.152;4.456;2022-09-01T07:49:16;19.95;;;9.65;;
22715;SDS011;11525;51.152;4.456;2022-09-01T07:51:42;16.55;;;8.73;;
22715;SDS011;11525;51.152;4.456;2022-09-01T07:54:08;15.05;;;8.60;;
22715;SDS011;11525;51.152;4.456;2022-09-01T07:56:36;19.35;;;9.60;;
22715;SDS011;11525;51.152;4.456;2022-09-01T07:59:04;19.48;;;9.48;;
22715;SDS011;11525;51.152;4.456;2022-09-01T08:01:30;20.92;;;8.90;;
22715;SDS011;11525;51.152;4.456;2022-09-01T08:03:57;15.80;;;9.02;;
22715;SDS011;11525;51.152;4.456;2022-09-01T08:06:26;21.30;;;9.52;;
22715;SDS011;11525;51.152;4.456;2022-09-01T08:08:54;19.40;;;8.55;;
22715;SDS011;11525;51.152;4.456;2022-09-01T08:11:23;15.55;;;8.48;;
22715;SDS011;11525;51.152;4.456;2022-09-01T08:13:56;20.70;;;9.57;;
22715;SDS011;11525;51.152;4.456;2022-09-01T08:16:28;23.00;;;9.10;;
22715;SDS011;11525;51.152;4.456;2022-09-01T08:18:55;12.80;;;8.77;;
22715;SDS011;11525;51.152;4.456;2022-09-01T08:21:21;16.80;;;9.15;;
22715;SDS011;11525;51.152;4.456;2022-09-01T08:23:48;18.08;;;9.32;;
22715;SDS011;11525;51.152;4.456;2022-09-01T08:26:17;14.15;;;8.93;;
22715;SDS011;11525;51.152;4.456;2022-09-01T08:28:44;23.73;;;9.52;;
22715;SDS011;11525;51.152;4.456;2022-09-01T08:31:11;22.10;;;8.75;;
22715;SDS011;11525;51.152;4.456;2022-09-01T08:33:38;20.33;;;8.65;;
22715;SDS011;11525;51.152;4.456;2022-09-01T08:36:06;15.55;;;8.82;;
22715;SDS011;11525;51.152;4.456;2022-09-01T08:38:33;21.20;;;8.40;;
22715;SDS011;11525;51.152;4.456;2022-09-01T08:41:00;19.23;;;8.50;;
22715;SDS011;11525;51.152;4.456;2022-09-01T08:46:24;13.23;;;7.75;;
22715;SDS011;11525;51.152;4.456;2022-09-01T08:48:59;13.45;;;7.15;;
22715;SDS011;11525;51.152;4.456;2022-09-01T08:51:34;14.20;;;7.25;;
22715;SDS011;11525;51.152;4.456;2022-09-01T08:54:21;14.48;;;7.15;;
22715;SDS011;11525;51.152;4.456;2022-09-01T08:57:10;12.63;;;7.05;;
22715;SDS011;11525;51.152;4.456;2022-09-01T08:59:41;15.88;;;7.80;;
22715;SDS011;11525;51.152;4.456;2022-09-01T09:02:24;16.75;;;7.97;;
22715;SDS011;11525;51.152;4.456;2022-09-01T09:05:32;13.57;;;7.40;;
22715;SDS011;11525;51.152;4.456;2022-09-01T09:10:59;13.48;;;6.30;;
22715;SDS011;11525;51.152;4.456;2022-09-01T09:19:24;12.93;;;5.80;;
22715;SDS011;11525;51.152;4.456;2022-09-01T09:21:56;10.80;;;6.35;;
22715;SDS011;11525;51.152;4.456;2022-09-01T09:26:50;10.90;;;5.18;;
22715;SDS011;11525;51.152;4.456;2022-09-01T09:29:20;9.35;;;4.68;;
22715;SDS011;11525;51.152;4.456;2022-09-01T09:31:46;10.30;;;4.03;;
22715;SDS011;11525;51.152;4.456;2022-09-01T09:34:31;8.63;;;4.57;;
22715;SDS011;11525;51.152;4.456;2022-09-01T09:37:21;3.22;;;2.60;;
22715;SDS011;11525;51.152;4.456;2022-09-01T09:40:04;7.03;;;2.60;;
22715;SDS011;11525;51.152;4.456;2022-09-01T09:45:26;7.35;;;2.67;;
22715;SDS011;11525;51.152;4.456;2022-09-01T09:47:53;4.95;;;2.20;;
22715;SDS011;11525;51.152;4.456;2022-09-01T09:50:27;5.43;;;2.10;;
22715;SDS011;11525;51.152;4.456;2022-09-01T09:53:15;3.22;;;1.88;;
22715;SDS011;11525;51.152;4.456;2022-09-01T09:58:20;2.90;;;1.73;;
22715;SDS011;11525;51.152;4.456;2022-09-01T10:01:04;5.90;;;1.98;;
22715;SDS011;11525;51.152;4.456;2022-09-01T10:03:42;6.63;;;2.00;;
22715;SDS011;11525;51.152;4.456;2022-09-01T10:06:30;5.07;;;2.00;;
22715;SDS011;11525;51.152;4.456;2022-09-01T10:08:56;5.13;;;2.63;;
22715;SDS011;11525;51.152;4.456;2022-09-01T10:11:27;4.63;;;2.60;;
22715;SDS011;11525;51.152;4.456;2022-09-01T10:14:05;10.75;;;3.58;;
22715;SDS011;11525;51.152;4.456;2022-09-01T10:16:52;5.55;;;3.08;;
22715;SDS011;11525;51.152;4.456;2022-09-01T10:19:24;4.90;;;2.38;;
22715;SDS011;11525;51.152;4.456;2022-09-01T10:21:52;6.07;;;2.60;;
22715;SDS011;11525;51.152;4.456;2022-09-01T10:24:26;6.72;;;2.13;;
22715;SDS011;11525;51.152;4.456;2022-09-01T10:27:00;5.82;;;2.30;;
22715;SDS011;11525;51.152;4.456;2022-09-01T10:30:14;5.25;;;2.20;;
22715;SDS011;11525;51.152;4.456;2022-09-01T10:32:41;4.25;;;2.03;;
22715;SDS011;11525;51.152;4.456;2022-09-01T10:35:11;5.22;;;1.95;;
22715;SDS011;11525;51.152;4.456;2022-09-01T10:37:43;4.57;;;1.83;;
22715;SDS011;11525;51.152;4.456;2022-09-01T10:40:15;3.22;;;1.90;;
22715;SDS011;11525;51.152;4.456;2022-09-01T10:42:45;4.07;;;1.50;;
22715;SDS011;11525;51.152;4.456;2022-09-01T10:45:28;4.78;;;1.40;;
22715;SDS011;11525;51.152;4.456;2022-09-01T10:53:39;3.15;;;1.50;;
22715;SDS011;11525;51.152;4.456;2022-09-01T11:09:44;6.13;;;1.60;;
22715;SDS011;11525;51.152;4.456;2022-09-01T11:12:38;3.30;;;1.42;;
22715;SDS011;11525;51.152;4.456;2022-09-01T11:17:38;2.30;;;1.67;;
22715;SDS011;11525;51.152;4.456;2022-09-01T11:20:25;3.45;;;1.70;;
22715;SDS011;11525;51.152;4.456;2022-09-01T11:25:32;3.42;;;1.80;;
22715;SDS011;11525;51.152;4.456;2022-09-01T11:28:34;8.30;;;1.90;;
22715;SDS011;11525;51.152;4.456;2022-09-01T11:30:56;8.40;;;1.80;;
22715;SDS011;11525;51.152;4.456;2022-09-01T11:36:34;4.00;;;2.00;;
22715;SDS011;11525;51.152;4.456;2022-09-01T11:41:55;12.93;;;2.50;;
22715;SDS011;11525;51.152;4.456;2022-09-01T11:44:27;6.20;;;2.10;;
22715;SDS011;11525;51.152;4.456;2022-09-01T11:47:15;6.03;;;2.38;;
22715;SDS011;11525;51.152;4.456;2022-09-01T11:49:56;5.95;;;2.15;;
22715;SDS011;11525;51.152;4.456;2022-09-01T11:52:26;3.55;;;2.10;;
22715;SDS011;11525;51.152;4.456;2022-09-01T11:54:54;7.20;;;2.22;;
22715;SDS011;11525;51.152;4.456;2022-09-01T11:59:58;5.85;;;2.00;;
22715;SDS011;11525;51.152;4.456;2022-09-01T12:02:27;6.18;;;2.13;;
22715;SDS011;11525;51.152;4.456;2022-09-01T12:04:58;4.50;;;2.00;;
22715;SDS011;11525;51.152;4.456;2022-09-01T12:07:32;6.35;;;2.20;;
22715;SDS011;11525;51.152;4.456;2022-09-01T12:10:14;4.78;;;2.00;;
22715;SDS011;11525;51.152;4.456;2022-09-01T12:12:48;6.13;;;2.22;;
22715;SDS011;11525;51.152;4.456;2022-09-01T12:15:23;5.28;;;1.98;;
22715;SDS011;11525;51.152;4.456;2022-09-01T12:18:08;6.47;;;2.70;;
22715;SDS011;11525;51.152;4.456;2022-09-01T12:20:44;2.70;;;2.15;;
22715;SDS011;11525;51.152;4.456;2022-09-01T12:23:26;6.85;;;2.25;;
22715;SDS011;11525;51.152;4.456;2022-09-01T12:25:58;3.97;;;1.92;;
22715;SDS011;11525;51.152;4.456;2022-09-01T12:28:30;2.55;;;2.10;;
22715;SDS011;11525;51.152;4.456;2022-09-01T12:31:03;6.40;;;2.60;;
22715;SDS011;11525;51.152;4.456;2022-09-01T12:33:31;4.90;;;2.00;;
22715;SDS011;11525;51.152;4.456;2022-09-01T12:49:58;6.45;;;2.38;;
22715;SDS011;11525;51.152;4.456;2022-09-01T12:52:26;2.90;;;2.15;;
22715;SDS011;11525;51.152;4.456;2022-09-01T13:00:08;3.55;;;2.22;;
22715;SDS011;11525;51.152;4.456;2022-09-01T13:07:45;3.78;;;2.20;;
22715;SDS011;11525;51.152;4.456;2022-09-01T13:10:11;3.80;;;2.40;;
22715;SDS011;11525;51.152;4.456;2022-09-01T13:12:41;4.75;;;2.33;;
22715;SDS011;11525;51.152;4.456;2022-09-01T13:15:08;7.18;;;2.63;;
22715;SDS011;11525;51.152;4.456;2022-09-01T13:17:34;3.83;;;2.25;;
22715;SDS011;11525;51.152;4.456;2022-09-01T13:20:02;6.20;;;2.50;;
22715;SDS011;11525;51.152;4.456;2022-09-01T13:22:30;3.05;;;2.25;;
22715;SDS011;11525;51.152;4.456;2022-09-01T13:24:55;5.93;;;2.53;;
22715;SDS011;11525;51.152;4.456;2022-09-01T13:27:21;4.30;;;2.60;;
22715;SDS011;11525;51.152;4.456;2022-09-01T13:29:47;8.13;;;2.67;;
22715;SDS011;11525;51.152;4.456;2022-09-01T13:32:14;6.93;;;2.30;;
22715;SDS011;11525;51.152;4.456;2022-09-01T13:34:41;3.95;;;2.75;;
22715;SDS011;11525;51.152;4.456;2022-09-01T13:37:06;4.75;;;2.45;;
22715;SDS011;11525;51.152;4.456;2022-09-01T13:39:32;6.28;;;2.55;;
22715;SDS011;11525;51.152;4.456;2022-09-01T13:41:58;3.22;;;2.20;;
22715;SDS011;11525;51.152;4.456;2022-09-01T13:44:24;4.10;;;1.90;;
22715;SDS011;11525;51.152;4.456;2022-09-01T13:46:49;3.17;;;2.10;;
22715;SDS011;11525;51.152;4.456;2022-09-01T13:49:15;5.10;;;2.28;;
22715;SDS011;11525;51.152;4.456;2022-09-01T13:51:41;3.17;;;2.25;;
22715;SDS011;11525;51.152;4.456;2022-09-01T13:54:06;6.18;;;2.13;;
22715;SDS011;11525;51.152;4.456;2022-09-01T13:56:32;4.43;;;2.30;;
22715;SDS011;11525;51.152;4.456;2022-09-01T13:58:59;4.85;;;2.00;;
22715;SDS011;11525;51.152;4.456;2022-09-01T14:01:25;5.97;;;2.22;;
22715;SDS011;11525;51.152;4.456;2022-09-01T14:03:50;8.38;;;2.28;;
22715;SDS011;11525;51.152;4.456;2022-09-01T14:06:16;6.00;;;2.13;;
22715;SDS011;11525;51.152;4.456;2022-09-01T14:08:42;5.13;;;1.95;;
22715;SDS011;11525;51.152;4.456;2022-09-01T14:11:14;2.55;;;1.92;;
22715;SDS011;11525;51.152;4.456;2022-09-01T14:13:41;4.32;;;1.92;;
22715;SDS011;11525;51.152;4.456;2022-09-01T14:16:12;2.38;;;1.98;;
22715;SDS011;11525;51.152;4.456;2022-09-01T14:18:39;3.15;;;1.95;;
22715;SDS011;11525;51.152;4.456;2022-09-01T14:21:09;4.00;;;1.98;;
22715;SDS011;11525;51.152;4.456;2022-09-01T14:23:37;2.65;;;1.80;;
22715;SDS011;11525;51.152;4.456;2022-09-01T14:26:06;2.00;;;1.67;;
22715;SDS011;11525;51.152;4.456;2022-09-01T14:28:38;3.67;;;1.58;;
22715;SDS011;11525;51.152;4.456;2022-09-01T14:31:07;3.63;;;2.00;;
22715;SDS011;11525;51.152;4.456;2022-09-01T14:33:34;6.53;;;1.88;;
22715;SDS011;11525;51.152;4.456;2022-09-01T14:36:00;4.70;;;1.80;;
22715;SDS011;11525;51.152;4.456;2022-09-01T14:38:27;4.43;;;1.98;;
22715;SDS011;11525;51.152;4.456;2022-09-01T14:40:53;4.20;;;1.70;;
22715;SDS011;11525;51.152;4.456;2022-09-01T14:43:19;4.90;;;1.65;;
22715;SDS011;11525;51.152;4.456;2022-09-01T14:45:46;5.20;;;1.85;;
22715;SDS011;11525;51.152;4.456;2022-09-01T14:48:25;3.15;;;1.60;;
22715;SDS011;11525;51.152;4.456;2022-09-01T14:50:51;4.70;;;1.80;;
22715;SDS011;11525;51.152;4.456;2022-09-01T14:53:18;7.53;;;1.65;;
22715;SDS011;11525;51.152;4.456;2022-09-01T14:58:32;3.92;;;1.92;;
22715;SDS011;11525;51.152;4.456;2022-09-01T15:00:57;6.63;;;1.88;;
22715;SDS011;11525;51.152;4.456;2022-09-01T15:03:23;5.60;;;1.63;;
22715;SDS011;11525;51.152;4.456;2022-09-01T15:05:53;3.90;;;1.75;;
22715;SDS011;11525;51.152;4.456;2022-09-01T15:08:19;3.30;;;1.50;;
22715;SDS011;11525;51.152;4.456;2022-09-01T15:10:47;4.90;;;1.70;;
22715;SDS011;11525;51.152;4.456;2022-09-01T15:13:19;3.22;;;1.60;;
22715;SDS011;11525;51.152;4.456;2022-09-01T15:15:45;3.63;;;1.73;;
22715;SDS011;11525;51.152;4.456;2022-09-01T15:18:11;4.95;;;1.80;;
22715;SDS011;11525;51.152;4.456;2022-09-01T15:20:38;4.57;;;1.90;;
22715;SDS011;11525;51.152;4.456;2022-09-01T15:23:19;6.82;;;1.83;;
22715;SDS011;11525;51.152;4.456;2022-09-01T15:25:46;4.40;;;1.63;;
22715;SDS011;11525;51.152;4.456;2022-09-01T15:28:13;3.80;;;1.50;;
22715;SDS011;11525;51.152;4.456;2022-09-01T15:30:39;2.45;;;1.60;;
22715;SDS011;11525;51.152;4.456;2022-09-01T15:33:06;2.80;;;1.48;;
22715;SDS011;11525;51.152;4.456;2022-09-01T15:35:32;4.20;;;1.70;;
22715;SDS011;11525;51.152;4.456;2022-09-01T15:37:59;4.78;;;1.50;;
22715;SDS011;11525;51.152;4.456;2022-09-01T15:40:25;5.88;;;1.60;;
22715;SDS011;11525;51.152;4.456;2022-09-01T15:42:52;3.08;;;1.50;;
22715;SDS011;11525;51.152;4.456;2022-09-01T15:45:22;5.35;;;1.95;;
22715;SDS011;11525;51.152;4.456;2022-09-01T15:47:48;4.13;;;1.80;;
22715;SDS011;11525;51.152;4.456;2022-09-01T15:50:16;3.88;;;1.38;;
22715;SDS011;11525;51.152;4.456;2022-09-01T15:55:21;7.35;;;2.00;;
22715;SDS011;11525;51.152;4.456;2022-09-01T15:57:49;4.95;;;1.60;;
22715;SDS011;11525;51.152;4.456;2022-09-01T16:00:17;5.75;;;1.48;;
22715;SDS011;11525;51.152;4.456;2022-09-01T16:02:43;4.03;;;1.50;;
22715;SDS011;11525;51.152;4.456;2022-09-01T16:05:09;2.42;;;1.52;;
22715;SDS011;11525;51.152;4.456;2022-09-01T16:07:36;4.22;;;1.67;;
22715;SDS011;11525;51.152;4.456;2022-09-01T16:10:03;3.47;;;1.58;;
22715;SDS011;11525;51.152;4.456;2022-09-01T16:12:30;5.03;;;1.50;;
22715;SDS011;11525;51.152;4.456;2022-09-01T16:14:59;3.95;;;1.45;;
22715;SDS011;11525;51.152;4.456;2022-09-01T16:17:41;3.33;;;1.50;;
22715;SDS011;11525;51.152;4.456;2022-09-01T16:20:16;3.40;;;1.60;;
22715;SDS011;11525;51.152;4.456;2022-09-01T16:22:55;4.63;;;1.75;;
22715;SDS011;11525;51.152;4.456;2022-09-01T16:25:30;2.72;;;1.50;;
22715;SDS011;11525;51.152;4.456;2022-09-01T16:28:01;4.35;;;1.75;;